Flight Track Log - Related Links

Times and Time Zones

All times are in EDT time to prevent confusion due to time zone crossing. See the LAK480 flight status page for this flight to view local times or setup timezone preferences in your user account.

Time Position Orientation Groundspeed Altitude Reporting Facility
EDT Latitude Longitude Course Direction KTS MPH feet Rate Location/Type
Sun 08:22:13 PM 40.8167 -74.1000 267° West 173 199 1,400  Level New York TRACON
Sun 08:23:51 PM 40.8108 -74.2339 291° West 226 260 4,300 1,937 Climbing New York Center
Sun 08:24:51 PM 40.8297 -74.3006 339° North 220 253 6,500 2,200 Climbing New York Center
Sun 08:25:51 PM 40.9014 -74.3372 354° North 226 260 8,700 2,150 Climbing New York Center
Sun 08:26:51 PM 40.9678 -74.3464 North 254 292 10,800 2,100 Climbing New York Center
Sun 08:27:51 PM 41.0553 -74.3453 359° North 272 313 12,900 2,050 Climbing New York Center
Sun 08:28:51 PM 41.1367 -74.3469 341° North 286 329 14,900 1,700 Climbing New York Center
Sun 08:29:51 PM 41.2106 -74.3811 304° West 286 329 16,300 1,250 Climbing New York Center
Sun 08:30:51 PM 41.2575 -74.4747 306° West 288 331 17,400 1,400 Climbing New York Center
Sun 08:31:51 PM 41.3050 -74.5603 305° West 296 341 19,100 1,600 Climbing New York Center
Sun 08:32:51 PM 41.3481 -74.6428 308° West 296 341 20,600 1,650 Climbing New York Center
Sun 08:33:51 PM 41.3972 -74.7258 305° West 296 341 22,400 1,750 Climbing New York Center
Sun 08:34:51 PM 41.4444 -74.8144 307° West 296 341 24,100 1,650 Climbing New York Center
Sun 08:35:51 PM 41.4933 -74.9006 306° West 291 335 25,700 1,650 Climbing New York Center
Sun 08:36:51 PM 41.5422 -74.9894 305° West 296 341 27,400 1,550 Climbing New York Center
Sun 08:37:51 PM 41.5872 -75.0753 305° West 296 341 28,800 1,450 Climbing New York Center
Sun 08:38:51 PM 41.6339 -75.1644 307° West 296 341 30,300 1,400 Climbing New York Center
Sun 08:39:51 PM 41.6828 -75.2511 306° West 296 341 31,600 1,300 Climbing New York Center
Sun 08:40:51 PM 41.7294 -75.3375 306° West 296 341 32,900 1,200 Climbing New York Center
Sun 08:41:51 PM 41.7758 -75.4242 306° West 296 341 34,000 1,200 Climbing New York Center
Sun 08:42:51 PM 41.8225 -75.5108 305° West 296 341 35,300 1,250 Climbing New York Center
Sun 08:43:51 PM 41.8669 -75.5975 305° West 291 335 36,500 950 Climbing New York Center
Sun 08:44:51 PM 41.9094 -75.6786 309° West 285 328 37,200 835 Climbing New York Center
Sun 08:46:29 PM 41.9833 -75.8000 298° West 270 311 38,700 759 Climbing Toronto Center
Sun 08:47:29 PM 42.0167 -75.8833 315° West 270 311 39,200 650 Climbing Toronto Center
Sun 08:48:29 PM 42.0667 -75.9500 298° West 270 311 40,000 400 Climbing Toronto Center
Sun 08:49:29 PM 42.1000 -76.0333 303° West 280 322 40,000  Level Toronto Center
Sun 08:50:13 PM 42.1492 -76.1350 296° West 278 320 40,000  Level Cleveland Center
Sun 08:51:13 PM 42.1842 -76.2336 294° West 278 320 40,000  Level Cleveland Center
Sun 08:52:13 PM 42.2194 -76.3406 294° West 299 344 40,000  Level Cleveland Center
Sun 08:53:13 PM 42.2544 -76.4450 293° West 306 352 40,000  Level Cleveland Center
Sun 08:54:13 PM 42.2875 -76.5494 295° West 311 358 40,000  Level Cleveland Center
Sun 08:55:13 PM 42.3247 -76.6594 293° West 311 358 40,000  Level Cleveland Center
Sun 08:56:13 PM 42.3597 -76.7697 292° West 311 358 40,000  Level Cleveland Center
Sun 08:57:13 PM 42.3925 -76.8803 294° West 316 364 40,000  Level Cleveland Center
Sun 08:58:13 PM 42.4294 -76.9933 293° West 323 372 40,000  Level Cleveland Center
Sun 08:59:13 PM 42.4639 -77.1014 293° West 328 377 40,000  Level Cleveland Center
Sun 09:00:13 PM 42.4986 -77.2147 294° West 328 377 40,000  Level Cleveland Center
Sun 09:01:13 PM 42.5350 -77.3256 292° West 323 372 40,000  Level Cleveland Center
Sun 09:02:13 PM 42.5650 -77.4256 291° West 323 372 40,000  Level Cleveland Center
Sun 09:03:13 PM 42.5997 -77.5508 294° West 323 372 40,000  Level Cleveland Center
Sun 09:04:13 PM 42.6358 -77.6592 292° West 323 372 40,000  Level Cleveland Center
Sun 09:05:13 PM 42.6700 -77.7733 294° West 323 372 40,000  Level Cleveland Center
Sun 09:06:13 PM 42.7081 -77.8903 292° West 329 379 40,000  Level Cleveland Center
Sun 09:07:13 PM 42.7419 -78.0019 293° West 322 371 40,000  Level Cleveland Center
Sun 09:08:13 PM 42.7778 -78.1167 294° West 327 376 40,000 150 Level Cleveland Center
Sun 09:09:13 PM 42.8133 -78.2256 289° West 327 376 40,300 550 Climbing Cleveland Center
Sun 09:10:13 PM 42.8383 -78.3236 290° West 327 376 41,100 700 Climbing Cleveland Center
Sun 09:11:13 PM 42.8675 -78.4303 293° West 305 351 41,700 550 Climbing Cleveland Center
Sun 09:12:13 PM 42.8961 -78.5228 291° West 285 328 42,200 550 Climbing Cleveland Center
Sun 09:13:13 PM 42.9250 -78.6239 283° West 285 328 42,800 400 Climbing Cleveland Center
Sun 09:14:13 PM 42.9414 -78.7228 270° West 279 321 43,000 100 Climbing Cleveland Center
Sun 09:15:13 PM 42.9408 -78.8278 274° West 273 314 43,000  Level Cleveland Center
Sun 09:16:13 PM 42.9467 -78.9353 272° West 273 314 43,000  Level Cleveland Center
Sun 09:17:29 PM 42.9500 -79.0667 270° West 290 334 43,000  Level Toronto Center
Sun 09:18:29 PM 42.9500 -79.1833 270° West 300 345 43,000  Level Toronto Center
Sun 09:19:29 PM 42.9500 -79.2833 270° West 300 345 43,000  Level Toronto Center
Sun 09:20:29 PM 42.9500 -79.4000 281° West 300 345 43,000  Level Toronto Center
Sun 09:21:29 PM 42.9667 -79.5167 270° West 300 345 43,000  Level Toronto Center
Sun 09:22:29 PM 42.9667 -79.6333 270° West 310 357 43,000  Level Toronto Center
Sun 09:23:29 PM 42.9667 -79.7500 281° West 310 357 43,000  Level Toronto Center
Sun 09:24:29 PM 42.9833 -79.8667 270° West 310 357 43,000  Level Toronto Center
Sun 09:25:29 PM 42.9833 -80.0000 270° West 310 357 43,000  Level Toronto Center
Sun 09:26:29 PM 42.9833 -80.0833 279° West 310 357 43,000  Level Toronto Center
Sun 09:27:29 PM 43.0000 -80.2333 270° West 310 357 43,000  Level Toronto Center
Sun 09:28:29 PM 43.0000 -80.3333 270° West 310 357 43,000  Level Toronto Center
Sun 09:29:29 PM 43.0000 -80.4500 281° West 320 368 43,000  Level Toronto Center
Sun 09:30:29 PM 43.0167 -80.5667 270° West 310 357 43,000  Level Toronto Center
Sun 09:31:29 PM 43.0167 -80.7000 259° West 310 357 43,000  Level Toronto Center
Sun 09:32:29 PM 43.0000 -80.8167 281° West 310 357 43,000  Level Toronto Center
Sun 09:33:29 PM 43.0167 -80.9333 270° West 320 368 43,000  Level Toronto Center
Sun 09:34:29 PM 43.0167 -81.0667 281° West 320 368 43,000  Level Toronto Center
Sun 09:35:29 PM 43.0333 -81.1833 281° West 310 357 43,000  Level Toronto Center
Sun 09:36:29 PM 43.0500 -81.3000 281° West 310 357 43,000  Level Toronto Center
Sun 09:37:29 PM 43.0667 -81.4167 281° West 310 357 43,000  Level Toronto Center
Sun 09:38:29 PM 43.0833 -81.5333 281° West 310 357 43,000  Level Toronto Center
Sun 09:39:29 PM 43.1000 -81.6500 283° West 310 357 43,000  Level Toronto Center
Sun 09:40:29 PM 43.1167 -81.7500 281° West 310 357 43,000  Level Toronto Center
Sun 09:41:29 PM 43.1333 -81.8667 281° West 310 357 43,000  Level Toronto Center
Sun 09:42:29 PM 43.1500 -81.9833 281° West 310 357 43,000  Level Toronto Center
Sun 09:43:29 PM 43.1667 -82.1000 280° West 310 357 43,000  Level Toronto Center
Sun 09:44:29 PM 43.1833 -82.2333 281° West 320 368 43,000  Level Toronto Center
Sun 09:45:29 PM 43.2000 -82.3500 283° West 310 357 43,000  Level Toronto Center
Sun 09:47:01 PM 43.2333 -82.5436 280° West 312 359 43,000  Level Cleveland Center
Sun 09:48:01 PM 43.2481 -82.6608 282° West 312 359 43,000  Level Cleveland Center
Sun 09:49:01 PM 43.2667 -82.7783 292° West 312 359 43,000  Level Cleveland Center
Sun 09:50:01 PM 43.3000 -82.8908 292° West 323 372 43,000  Level Cleveland Center
Sun 09:51:01 PM 43.3331 -83.0064 292° West 317 365 43,000  Level Cleveland Center
Sun 09:52:01 PM 43.3642 -83.1131 290° West 317 365 43,000  Level Cleveland Center
Sun 09:53:01 PM 43.3947 -83.2317 290° West 317 365 43,000  Level Cleveland Center
Sun 09:54:59 PM 43.4481 -83.4353 272° West 320 368 43,000  Level Minneapolis Center
Sun 09:55:29 PM 43.4500 -83.5167 295° West 320 368 43,000  Level Toronto Center
Sun 09:56:29 PM 43.4833 -83.6167 281° West 320 368 43,000  Level Toronto Center
Sun 09:57:29 PM 43.5000 -83.7333 292° West 320 368 43,000  Level Toronto Center
Sun 09:58:29 PM 43.5333 -83.8500 292° West 320 368 43,000  Level Toronto Center
Sun 09:59:29 PM 43.5667 -83.9667 292° West 320 368 43,000  Level Toronto Center
Sun 10:00:29 PM 43.6000 -84.0833 281° West 320 368 43,000  Level Toronto Center
Sun 10:01:29 PM 43.6167 -84.2000 315° West 320 368 43,000  Level Toronto Center
Sun 10:01:59 PM 43.6522 -84.2494 289° West 314 361 43,000  Level Minneapolis Center
Sun 10:02:58 PM 43.6772 -84.3492 289° West 321 369 43,000  Level Minneapolis Center
Sun 10:03:58 PM 43.7050 -84.4600 288° West 315 362 43,000  Level Minneapolis Center
Sun 10:04:58 PM 43.7333 -84.5794 291° West 315 362 43,000  Level Minneapolis Center
Sun 10:05:58 PM 43.7653 -84.6928 289° West 315 362 43,000  Level Minneapolis Center
Sun 10:06:59 PM 43.7928 -84.8039 288° West 315 362 43,000 -50 Level Minneapolis Center
Sun 10:07:58 PM 43.8208 -84.9208 287° West 315 362 42,900 -555 Descending Minneapolis Center
Sun 10:08:58 PM 43.8467 -85.0414 286° West 320 368 41,900 -950 Descending Minneapolis Center
Sun 10:09:58 PM 43.8731 -85.1731 290° West 335 386 41,000 -893 Descending Minneapolis Center
Sun 10:10:59 PM 43.9086 -85.3125 292° West 346 398 40,100 -496 Descending Minneapolis Center
Sun 10:11:59 PM 43.9419 -85.4292 289° West 346 398 40,000 -50 Descending Minneapolis Center
Sun 10:12:58 PM 43.9717 -85.5522 290° West 339 390 40,000  Level Minneapolis Center
Sun 10:13:58 PM 44.0031 -85.6722 287° West 339 390 40,000  Level Minneapolis Center
Sun 10:14:58 PM 44.0306 -85.7989 289° West 339 390 40,000  Level Minneapolis Center
Sun 10:15:58 PM 44.0597 -85.9194 287° West 339 390 40,000  Level Minneapolis Center
Sun 10:16:58 PM 44.0867 -86.0433 284° West 339 390 40,000  Level Minneapolis Center
Sun 10:17:58 PM 44.1067 -86.1567 277° West 339 390 40,000  Level Minneapolis Center
Sun 10:18:58 PM 44.1169 -86.2828 279° West 334 384 40,000  Level Minneapolis Center
Sun 10:19:58 PM 44.1317 -86.4142 278° West 334 384 40,000  Level Minneapolis Center
Sun 10:20:58 PM 44.1439 -86.5431 278° West 334 384 40,000  Level Minneapolis Center
Sun 10:21:58 PM 44.1558 -86.6692 279° West 334 384 40,000  Level Minneapolis Center
Sun 10:22:58 PM 44.1697 -86.7981 277° West 334 384 40,000  Level Minneapolis Center
Sun 10:23:58 PM 44.1817 -86.9300 279° West 334 384 40,000  Level Minneapolis Center
Sun 10:24:58 PM 44.1950 -87.0531 278° West 334 384 40,000  Level Minneapolis Center
Sun 10:25:58 PM 44.2086 -87.1850 279° West 334 384 40,000  Level Minneapolis Center
Sun 10:26:59 PM 44.2250 -87.3283 276° West 339 390 40,000  Level Minneapolis Center
Sun 10:27:58 PM 44.2342 -87.4578 280° West 339 390 40,000  Level Minneapolis Center
Sun 10:28:59 PM 44.2517 -87.5925 277° West 352 405 40,000  Level Minneapolis Center
Sun 10:29:58 PM 44.2625 -87.7219 277° West 347 399 40,000  Level Minneapolis Center
Sun 10:30:58 PM 44.2733 -87.8514 277° West 347 399 40,000  Level Minneapolis Center
Sun 10:31:58 PM 44.2831 -87.9667 276° West 347 399 40,000  Level Minneapolis Center
Sun 10:32:58 PM 44.2944 -88.1136 277° West 347 399 40,000  Level Minneapolis Center
Sun 10:33:59 PM 44.3042 -88.2317 278° West 347 399 40,000  Level Minneapolis Center
Sun 10:34:58 PM 44.3164 -88.3611 276° West 347 399 40,000  Level Minneapolis Center
Sun 10:35:58 PM 44.3264 -88.4939 277° West 347 399 40,000  Level Minneapolis Center
Sun 10:36:58 PM 44.3392 -88.6439 276° West 347 399 40,000  Level Minneapolis Center
Sun 10:37:58 PM 44.3483 -88.7592 277° West 347 399 40,000  Level Minneapolis Center
Sun 10:38:58 PM 44.3606 -88.9094 276° West 352 405 40,000  Level Minneapolis Center
Sun 10:39:58 PM 44.3697 -89.0308 274° West 352 405 40,000  Level Minneapolis Center
Sun 10:40:58 PM 44.3769 -89.1639 278° West 343 395 40,000 -50 Level Minneapolis Center
Sun 10:41:58 PM 44.3900 -89.2936 277° West 343 395 39,900 -1,000 Descending Minneapolis Center
Sun 10:42:58 PM 44.4011 -89.4264 282° West 352 405 38,000 -1,950 Descending Minneapolis Center
Sun 10:43:58 PM 44.4203 -89.5561 271° West 345 397 36,000 -2,000 Descending Minneapolis Center
Sun 10:44:58 PM 44.4225 -89.6808 270° West 330 380 34,000 -2,000 Descending Minneapolis Center
Sun 10:45:58 PM 44.4228 -89.8117 272° West 331 381 32,000 -1,950 Descending Minneapolis Center
Sun 10:46:58 PM 44.4269 -89.9481 277° West 350 403 30,100 -1,934 Descending Minneapolis Center
Sun 10:47:59 PM 44.4397 -90.0900 276° West 361 415 28,100 -2,000 Descending Minneapolis Center
Sun 10:48:58 PM 44.4500 -90.2347 277° West 374 430 26,100 -1,900 Descending Minneapolis Center
Sun 10:49:59 PM 44.4625 -90.3794 278° West 380 437 24,300 -1,400 Descending Minneapolis Center
Sun 10:50:58 PM 44.4767 -90.5183 277° West 373 429 23,300 -1,000 Descending Minneapolis Center
Sun 10:51:59 PM 44.4883 -90.6544 272° West 365 420 22,300 -1,200 Descending Minneapolis Center
Sun 10:52:58 PM 44.4917 -90.7911 277° West 365 420 20,900 -1,350 Descending Minneapolis Center
Sun 10:53:59 PM 44.5031 -90.9244 274° West 360 414 19,600 -1,350 Descending Minneapolis Center
Sun 10:54:58 PM 44.5103 -91.0611 275° West 354 407 18,200 -1,412 Descending Minneapolis Center
Sun 10:55:58 PM 44.5192 -91.1917 273° West 344 396 16,800 -1,388 Descending Minneapolis Center
Sun 10:56:59 PM 44.5239 -91.3194 275° West 344 396 15,400 -1,400 Descending Minneapolis Center
Sun 10:57:58 PM 44.5322 -91.4475 276° West 344 396 14,000 -1,412 Descending Minneapolis Center
Sun 10:58:58 PM 44.5408 -91.5722 274° West 329 379 12,600 -1,388 Descending Minneapolis Center
Sun 10:59:59 PM 44.5469 -91.7033 274° West 324 373 11,200 -1,400 Descending Minneapolis Center
Sun 11:00:58 PM 44.5528 -91.8136 275° West 299 344 9,800 -1,412 Descending Minneapolis Center
Sun 11:01:58 PM 44.5583 -91.9125 274° West 274 315 8,400 -1,400 Descending Minneapolis Center
Sun 11:02:58 PM 44.5639 -92.0172 285° West 274 315 7,000 -1,468 Descending Minneapolis Center
Sun 11:03:32 PM 44.5728 -92.0653 275° West 268 308 6,100 -1,541 Descending FAA TRACON SMA TRACON (SMA)
Sun 11:04:12 PM 44.5772 -92.1325 279° West 251 289 5,100 -1,350 Descending FAA TRACON SMA TRACON (SMA)
Sun 11:04:52 PM 44.5839 -92.1925 289° West 224 258 4,300 -900 Descending FAA TRACON SMA TRACON (SMA)
Sun 11:05:32 PM 44.5953 -92.2400 278° West 207 238 3,900 11,516 Descending FAA TRACON SMA TRACON (SMA)
Sun 11:07:58 PM 44.6167 -92.4650 280° West 229 264 40,000 10,515 Climbing Minneapolis Center
Sun 11:08:58 PM 44.6256 -92.5350 360° North 229 264 40,000  Level Minneapolis Center
Sun 11:09:58 PM 44.6256 -92.5350 360° North 229 264 40,000  Level Minneapolis Center
Sun 11:10:58 PM 44.6256 -92.5350 360° North 229 264 40,000  Level Minneapolis Center
Sun 11:11:58 PM 44.6256 -92.5350 360° North 229 264 40,000  Level Minneapolis Center
Sun 11:12:59 PM 44.6256 -92.5350 360° North 229 264 40,000  Level Minneapolis Center
Sun 11:13:59 PM 44.6256 -92.5350 360° North 229 264 40,000  Level Minneapolis Center
Sun 11:14:59 PM 44.6256 -92.5350 360° North 229 264 40,000  Level Minneapolis Center
Sun 11:15:59 PM 44.6256 -92.5350 360° North 229 264 40,000  Level Minneapolis Center
Sun 11:16:59 PM 44.6256 -92.5350 360° North 229 264 40,000  Level Minneapolis Center
Sun 11:17:58 PM 44.6256 -92.5350 360° North 229 264 40,000  Level Minneapolis Center
Sun 11:18:58 PM 44.6256 -92.5350 360° North 229 264 40,000  Level Minneapolis Center
Sun 11:19:58 PM 44.6256 -92.5350 360° North 229 264 40,000  Level Minneapolis Center
Sun 11:20:59 PM 44.6256 -92.5350 360° North 229 264 40,000  Level Minneapolis Center

Login

Don't have an account? Register now (free) for customized features, flight alerts, and more!